Domov               UVHVVR             MKGP            O straneh              
ZDRAVSTVENO VARSTVO RASTLIN
  MREŽA AGROMET. POSTAJ
 ► PROGNOSTIČNA OBVESTILA
AGROMETEOROLOŠKI PODATKI -
ARSO
OBVLADOVANJE TVEGANJ ZARADI
NEUGODNIH VREMENSKIH RAZMER
  ► NARAVNE NESREČE
  ► SUŠA/MOČA
  ► NAMAKANJE
  ► ŽLED (gozdarstvo)
KARTOGRAFSKI PRIKAZI
SPLETNE POVEZAVE
PROJEKTI IN PUBLIKACIJE

AGROMETEOROLOŠKA MREŽA: VREMENSKE POSTAJE IN FENOLOŠKA OPAZOVANJA

Pregled podatkov za lokacijo Stara Nova vas, meteorološka postaja 49162

Pregled senzorjev na lokaciji

ID Ime Zadnja
vrednost
Datum
zadnje
spremembe
Tip
senzorja
3704 Temperatura 2 m ( °C) 22,95 °C 25.6.2017 03:00 50YA
3705 Relativna vlaga 2 m (% RH) 83,73 % RH 25.6.2017 03:00 50YA
3706 Omočenost lista (U) 4 U 25.6.2017 03:00 A730WET
3707 Sončno sevanje (W/m2) 0,58 W/m2 25.6.2017 03:00 Pyranometer SP-Lite
3708 Temperatura tal ( °C) 19,14 °C 25.6.2017 03:00 99TG411E
3709 Hitrost vetra (km/h) 15,88 km/h 25.6.2017 03:00 566.2S-176 (200km/h)
3710 Smer vetra (°) 300,56 ° 25.6.2017 03:00 566.2S-130
3711 Padavine 0.2 mm (mm) 0 mm 25.6.2017 03:00 Rain-O-Matic

Pregled podatkov zadnjih 24 ur

Zap.
št.
Datum in čas Stara Nova vas
Hitrost
vetra
Omočenost
lista
Padavine
0.2
mm
Relativna
vlaga
2
m
Smer
vetra
Sončno
sevanje
Temperatura
2
m
Temperatura
tal
0 25.6.2017 02:00 15,88 4 0 83,73 300,56 0,58 22,95 19,14
1 25.6.2017 01:30 2,8 9 0 100 278,93 0,52 20,8 19,17
2 25.6.2017 01:00 0,45 5 0 100 272,2 0,52 21,12 19,28
3 25.6.2017 00:30 2,08 3 0 100 307,01 0,52 21,24 19,38
4 25.6.2017 00:00 1,4 2 0 100 195,44 0,52 20,71 19,47
5 24.6.2017 23:30 1,18 1 0 100 191,1 21 19,61
6 24.6.2017 23:00 0,11 1 0 100 189,47 21,34 19,74
7 24.6.2017 22:30 0,22 1 0 100 189,83 21,38 19,89
8 24.6.2017 22:00 1,07 0 0 99,8 189,4 21,81 20,05
9 24.6.2017 21:30 0,49 0 0 98,75 187,55 21,95 20,2
10 24.6.2017 21:00 0,33 0 0 94,23 188 22,82 20,4
11 24.6.2017 20:30 0,95 0 0 81,55 183,91 24,91 20,6
12 24.6.2017 20:00 2,39 0 0 76,89 151,2 3,54 25,76 20,76
13 24.6.2017 19:30 2,02 0 0 77,71 184,23 16,6 26,45 20,94
14 24.6.2017 19:00 2,02 0 0 66,65 200,62 91,25 28,68 21,05
15 24.6.2017 18:30 1,86 0 0 64,58 177,13 128,05 29,07 21,12
16 24.6.2017 18:00 3,15 0 0 64,18 161,24 136,32 28,88 21,16
17 24.6.2017 17:30 4,53 0 0 62,62 143,66 115,05 29,04 21,21
18 24.6.2017 17:00 4,96 0 0 60,62 176,32 144,84 29,56 21,29
19 24.6.2017 16:30 7,25 0 0 56,42 176,81 184,39 30,3 21,36
20 24.6.2017 16:00 8,57 0 0 52,81 162,13 389,44 31,31 21,41
21 24.6.2017 15:30 7,12 0 0 52,74 152,23 468,06 31,6 21,4
22 24.6.2017 15:00 7,26 0 0 52,71 187,96 598,79 31,78 21,34
23 24.6.2017 14:30 7,57 0 0 54,81 219,41 632,39 31,5 21,22
24 24.6.2017 14:00 8,22 0 0 55,31 167,81 722,24 31,17 21,12
25 24.6.2017 13:30 7,75 0 0 54,23 128,58 753,37 30,61 20,97
26 24.6.2017 13:00 7,68 0 0 54,82 193,76 774,33 30,17 20,79
27 24.6.2017 12:30 5,9 0 0 54,77 129,34 786,63 29,66 20,6
28 24.6.2017 12:00 4,46 0 0 57,59 164,13 785,47 29,33 20,38
29 24.6.2017 11:30 4,93 0 0 59,72 171,73 745,4 28,69 20,13
30 24.6.2017 11:00 4,5 0 0 61,47 93,8 740,61 28,14 19,87
31 24.6.2017 10:30 5,94 0 0 63,14 203,33 721,42 27,18 19,59
32 24.6.2017 10:00 3,55 0 0 63,27 183,79 666,21 26,5 19,31
33 24.6.2017 09:30 3,24 0 0 67,41 180,32 626,29 25,73 19,02
34 24.6.2017 09:00 2,17 0 0 69,48 82,73 565,13 25,17 18,76
35 24.6.2017 08:30 1,49 0 0 72,24 76,44 499,15 24,34 18,54
36 24.6.2017 08:00 2,41 0 0 74,1 46,05 423,32 23,56 18,29
37 24.6.2017 07:30 1,58 6 0 74,84 105,07 337,19 22,87 18,08
38 24.6.2017 07:00 2,13 10 0 81,7 12,84 268,13 21,67 17,86
39 24.6.2017 06:30 2,32 10 0 93,03 353,22 201,45 20,4 17,69
40 24.6.2017 06:00 0,22 10 0 100 311,54 130,95 19,07 17,6
41 24.6.2017 05:30 0,11 10 0 100 275,07 75,68 17,63 17,56
42 24.6.2017 05:00 0,11 10 0 100 311,38 40,22 16,86 17,57
43 24.6.2017 04:30 0,54 10 0 100 311,62 9,98 16,35 17,6
44 24.6.2017 04:00 1,74 10 0 100 324,94 1,19 16,64 17,7
© 2011 Ministrstvo za kmetijstvo, gozdarstvo in prehrano. Vse pravice pridržane.